AirNav   Air Wisconsin Up To $57,000 Bonus
 
 1128 users online  

CA05 Machado Dusters Airport
Stratford, California, USA

GOING TO STRATFORD?


FAA INFORMATION EFFECTIVE 01 DECEMBER 2022

Location

FAA Identifier: CA05
Lat/Long: 36-09-36.8240N 119-48-48.4730W
36-09.613733N 119-48.807883W
36.1602289,-119.8134647
(estimated)
Elevation: 192 ft. / 59 m (estimated)
Variation: 15E (1985)
From city: 2 miles S of STRATFORD, CA
Time zone: UTC -8 (UTC -7 during Daylight Saving Time)
Zip code: 93266

Airport Operations

Airport use: Private use. Permission required prior to landing
Activation date: 03/1955
Control tower: no
ARTCC: OAKLAND CENTER
FSS: RANCHO MURIETA FLIGHT SERVICE STATION
Attendance: UNATNDD
Wind indicator: yes
Segmented circle: no
Lights: SS-SR

Airport Communications

WX AWOS-3 at NLC (12 nm NW): 121.575 (559-998-2336)
WX ASOS at HJO (13 nm NE): 134.75 (559-585-8076)

Nearby radio navigation aids

VOR radial/distance  VOR name  Freq  Var
AVEr359/31.8AVENAL VOR/DME117.1016E

 
NDB name  Hdg/Dist  Freq  Var  ID
SALYER FARMS276/14.820516ECOR -.-. --- .-.

Airport Services

Parking: hangars
Airframe service: NONE
Powerplant service: NONE
Bottled oxygen: NONE
Bulk oxygen: NONE

Runway Information

Runway 14/32

Dimensions: 2600 x 60 ft. / 792 x 18 m
Surface: asphalt
Runway edge lights: medium intensity
RUNWAY 14  RUNWAY 32
Traffic pattern: leftleft
Runway end identifier lights: nono

Airport Ownership and Management from official FAA records

Ownership: Privately-owned
Owner: MACHADO DUSTERS
PO BOX 156
STRATFORD, CA 93266

Airport Operational Statistics

Aircraft based on the field: 5
Single engine airplanes: 5
    

Additional Remarks

LGTD PLINE NEAR RWY.
FOR CD CTC OAKLAND ARTCC AT 510-745-3380.

Instrument Procedures

There are no published instrument procedures at CA05.

Some nearby airports with instrument procedures:

KNLC - Lemoore Naval Air Station (Reeves Field) (12 nm NW)
KHJO - Hanford Municipal Airport (13 nm NE)
KVIS - Visalia Municipal Airport (22 nm NE)
KTLR - Mefford Field Airport (24 nm E)
KFCH - Fresno Chandler Executive Airport (34 nm N)
 
Loc | Ops | Rwys | IFR | FBO | Links
Com | Nav | Svcs | Stats | Notes
Area around CA05 (Machado Dusters Airport)
 
Road maps at: MapQuest Bing Google
 
Aerial photo
No photo
 
Sectional chart

 
Airport distance calculator
Flying to Machado Dusters Airport? Find the distance to fly.

From to CA05

Sunrise and sunset
Times for 06-Dec-2022
 Local
(UTC-8)
 Zulu
(UTC)
Morning civil twilight06:2914:29
Sunrise06:5714:57
Sunset16:4300:43
Evening civil twilight17:1201:12

Current date and time
Zulu (UTC)  07-Dec-2022 02:29:38
Local (UTC-8)  06-Dec-2022 18:29:38
 
METAR
KNLC 
11nm NW 
070156Z 34005KT 10SM SCT041 BKN055 OVC085 11/08 A3005 RMK AO2 RAE17 TSE17 SLP177 SHRA DSNT N RH/80 P0000 T01110078
KHJO 
13nm NE 
070153Z AUTO 00000KT 10SM BKN090 11/08 A3005 RMK AO2 SLP179 T01060078
KVIS 
22nm NE 
070156Z AUTO 33004KT 10SM CLR 12/08 A3005 RMK AO2 SLP185 T01170083
TAF
KNLC 
11nm NW 
0623/0723 VRB06KT 9999 VCTS SCT032 BKN110 BKN230 640808 531809 532709 QNH2995INS TEMPO 0700/0703 33015KT 6000 TSRA BR BKN029 BKN040CB OVC090 FM070300 32006KT 8000 BR VCSH SCT005 BKN050 640808 531809 532709 QNH2996INS FM070500 33008KT 9999 FEW019 SCT044 BKN130 BKN230 640808 531809 532709 QNH3001INS BECMG 0706/0707 VRB06KT 4800 BR SCT008 BKN044 640808 531809 532709 QNH3005INS FM071000 VRB04KT 2400 BR BKN008 600000 500000 QNH3008INS TEMPO 0711/0715 0400 FG VV002 FM071700 VRB03KT 4000 BR BKN008 QNH3
NOTAMs
Click for the latest NOTAMs
NOTAMs are issued by the DoD/FAA and will open in a separate window not controlled by AirNav.

 

 
 

Would you like to see your business listed on this page?

 If your business provides an interesting product or service to pilots, flight crews, aircraft, or users of the Machado Dusters Airport, you should consider listing it here.  To start the listing process, click on the button below
 
Add a business
 

Other Pages about Machado Dusters Airport

Update a link
 
Copyright © AirNav, LLC. All rights reserved. Privacy Policy  Contact